Time;durP1;ratioP1;P1;durP2;ratioP2;P2;SDS_P1;SDS_P2;PMS_P1;PMS_P2;Temp;Humidity;BMP_temperature;BMP_pressure;BME280_temperature;BME280_humidity;BME280_pressure;Samples;Min_cycle;Max_cycle;Signal;HPM_P1;HPM_P2
2023/06/29 04:17:32;;;;;;;8.90;3.90;;;;;;;15.05;97.80;100293.56;5556482;32;324611;-84
2023/06/29 04:20:36;;;;;;;4.32;3.92;;;;;;;15.11;96.24;100296.78;5544908;32;34082;-84
2023/06/29 04:23:38;;;;;;;5.80;3.65;;;;;;;15.21;94.08;100298.72;5543223;32;34307;-84
2023/06/29 04:26:41;;;;;;;6.78;3.78;;;;;;;15.23;95.59;100288.78;5544439;32;34048;-84
2023/06/29 04:29:44;;;;;;;8.73;3.72;;;;;;;15.36;95.53;100286.09;5547084;32;34173;-84
2023/06/29 04:32:47;;;;;;;6.28;3.78;;;;;;;15.38;92.93;100288.63;5546726;32;33550;-84
2023/06/29 04:35:49;;;;;;;5.62;3.60;;;;;;;15.52;91.56;100287.66;5546534;32;34748;-85
2023/06/29 04:38:53;;;;;;;8.27;3.95;;;;;;;15.74;90.78;100291.44;5546115;32;34231;-85
2023/06/29 04:42:04;;;;;;;5.50;3.70;;;;;;;16.00;87.91;100289.53;5546860;32;33612;-84
2023/06/29 04:45:08;;;;;;;4.32;3.58;;;;;;;16.36;86.64;100296.75;5546847;32;33878;-85
2023/06/29 04:48:10;;;;;;;6.15;3.30;;;;;;;16.27;87.45;100288.47;5546410;32;34398;-85
2023/06/29 04:51:14;;;;;;;5.40;3.62;;;;;;;16.22;88.38;100292.44;5546846;32;33629;-84
2023/06/29 04:54:17;;;;;;;4.85;3.80;;;;;;;16.37;86.80;100287.75;5546144;32;33707;-84
2023/06/29 04:57:20;;;;;;;5.43;3.50;;;;;;;16.32;88.88;100293.47;5546635;32;33459;-84
2023/06/29 05:00:23;;;;;;;6.03;4.05;;;;;;;16.52;86.80;100281.25;5547916;32;33743;-85
2023/06/29 05:03:26;;;;;;;9.25;4.30;;;;;;;16.66;83.64;100282.88;5550313;32;34109;-85
2023/06/29 05:06:29;;;;;;;7.65;3.67;;;;;;;16.69;82.70;100277.25;5548298;32;34586;-84
2023/06/29 05:09:32;;;;;;;5.57;3.50;;;;;;;17.16;80.71;100289.78;5547054;32;34233;-84
2023/06/29 05:12:34;;;;;;;4.72;3.92;;;;;;;17.39;77.98;100284.41;5546411;32;34115;-84
2023/06/29 05:15:37;;;;;;;9.13;3.78;;;;;;;17.45;79.49;100291.09;5547647;32;33656;-84
2023/06/29 05:18:40;;;;;;;6.22;3.70;;;;;;;17.70;79.01;100292.62;5551806;32;34052;-84
2023/06/29 05:21:42;;;;;;;9.48;3.80;;;;;;;17.84;78.27;100286.16;5554676;32;34400;-85
2023/06/29 05:24:45;;;;;;;3.80;3.20;;;;;;;19.82;68.15;100290.91;5554774;32;34465;-85
2023/06/29 05:27:48;;;;;;;5.93;3.35;;;;;;;22.17;56.86;100293.09;5556257;32;33576;-85
2023/06/29 05:30:50;;;;;;;3.37;2.60;;;;;;;25.15;47.89;100288.91;5557409;32;33925;-85
2023/06/29 05:33:53;;;;;;;8.38;3.28;;;;;;;25.71;44.61;100307.03;5554827;32;34861;-88
2023/06/29 05:36:56;;;;;;;5.18;3.20;;;;;;;25.68;44.40;100310.06;5555255;32;34055;-90
2023/06/29 05:40:02;;;;;;;5.68;3.10;;;;;;;25.87;43.32;100308.78;5555364;32;33700;-90
2023/06/29 05:43:04;;;;;;;3.08;2.70;;;;;;;27.82;39.33;100311.00;5556526;32;34437;-86
2023/06/29 05:46:07;;;;;;;7.05;3.08;;;;;;;28.07;38.28;100307.09;5559852;32;33716;-86
2023/06/29 05:49:10;;;;;;;9.60;2.47;;;;;;;29.82;35.86;100304.75;5542074;32;33929;-85
2023/06/29 05:52:13;;;;;;;5.37;2.53;;;;;;;32.12;31.65;100308.00;5531802;32;32551;-87
2023/06/29 05:55:15;;;;;;;3.00;2.50;;;;;;;32.14;32.00;100311.37;5521994;32;33787;-84
2023/06/29 05:58:18;;;;;;;5.85;2.60;;;;;;;32.59;29.96;100310.44;5515528;32;33649;-85
2023/06/29 06:01:21;;;;;;;5.87;2.53;;;;;;;30.99;33.04;100305.47;5525930;32;34097;-85
2023/06/29 06:04:24;;;;;;;3.90;2.33;;;;;;;30.72;32.84;100313.75;5524379;32;34000;-85
2023/06/29 06:07:30;;;;;;;5.10;2.35;;;;;;;28.47;36.77;100310.22;5524117;32;33842;-85
2023/06/29 06:10:33;;;;;;;4.28;2.67;;;;;;;30.48;34.40;100318.78;5519168;32;34663;-85
2023/06/29 06:13:36;;;;;;;3.33;2.20;;;;;;;30.74;32.77;100311.63;5520278;32;34136;-84
2023/06/29 06:16:39;;;;;;;4.70;2.40;;;;;;;29.41;34.76;100317.41;5520145;32;33633;-85
2023/06/29 06:19:42;;;;;;;6.25;2.55;;;;;;;28.48;37.00;100311.06;5524494;32;33523;-85
2023/06/29 06:22:46;;;;;;;6.05;2.95;;;;;;;30.34;34.93;100316.03;5530225;32;33750;-86
2023/06/29 06:25:48;;;;;;;5.62;2.42;;;;;;;31.91;32.19;100307.28;5529865;32;34029;-85
2023/06/29 06:28:51;;;;;;;6.25;2.50;;;;;;;33.00;30.39;100310.06;5530496;32;34847;-86
2023/06/29 06:31:55;;;;;;;4.32;2.33;;;;;;;33.01;30.19;100311.72;5529841;32;34566;-86
2023/06/29 06:34:58;;;;;;;6.35;2.70;;;;;;;31.22;32.48;100313.22;5531289;32;34193;-86
2023/06/29 06:38:00;;;;;;;3.22;2.58;;;;;;;30.07;34.68;100318.69;5527381;32;34032;-86
2023/06/29 06:41:03;;;;;;;4.55;2.55;;;;;;;26.08;42.55;100316.31;5516170;32;34440;-86
2023/06/29 06:44:06;;;;;;;8.65;2.78;;;;;;;26.25;43.16;100310.78;5514230;32;34200;-85
2023/06/29 06:47:09;;;;;;;5.00;2.90;;;;;;;25.23;46.21;100313.28;5516495;32;34644;-85
2023/06/29 06:50:11;;;;;;;4.18;3.00;;;;;;;23.80;50.96;100302.56;5512508;32;33710;-84
2023/06/29 06:53:14;;;;;;;7.37;2.87;;;;;;;24.27;49.69;100300.31;5512541;32;35009;-85
2023/06/29 06:56:17;;;;;;;5.68;3.40;;;;;;;23.21;52.06;100297.94;5520970;32;33910;-84
2023/06/29 06:59:20;;;;;;;5.07;3.08;;;;;;;23.33;53.57;100300.41;5529829;32;34833;-85
2023/06/29 07:02:23;;;;;;;5.18;3.10;;;;;;;23.72;53.72;100302.56;5513455;32;33508;-84
2023/06/29 07:05:26;;;;;;;4.95;3.25;;;;;;;23.78;53.01;100301.06;5511514;32;34115;-84
2023/06/29 07:08:29;;;;;;;7.55;3.40;;;;;;;24.26;51.44;100295.94;5517631;32;33661;-84
2023/06/29 07:11:34;;;;;;;4.87;3.10;;;;;;;24.91;49.67;100304.22;5528886;32;33500;-84
2023/06/29 07:14:39;;;;;;;4.43;2.95;;;;;;;24.00;53.04;100291.47;5524364;32;34891;-84
2023/06/29 07:17:42;;;;;;;9.98;3.40;;;;;;;23.73;52.44;100303.41;5519934;32;33727;-83
2023/06/29 07:20:44;;;;;;;4.18;3.40;;;;;;;23.51;53.19;100298.44;5517319;32;34184;-84
2023/06/29 07:23:50;;;;;;;4.68;3.30;;;;;;;23.83;53.77;100302.25;5529965;32;33681;-84
2023/06/29 07:26:56;;;;;;;3.20;2.90;;;;;;;24.73;49.62;100298.94;5529071;32;34320;-84
2023/06/29 07:30:01;;;;;;;3.35;3.05;;;;;;;24.77;50.22;100313.88;5527786;32;34158;-84
2023/06/29 07:33:04;;;;;;;4.97;3.62;;;;;;;24.97;49.96;100303.53;5513801;32;33742;-85
2023/06/29 07:36:08;;;;;;;3.28;2.97;;;;;;;24.17;51.37;100307.75;5513058;32;34120;-84
2023/06/29 07:39:10;;;;;;;5.50;3.30;;;;;;;24.74;51.34;100309.62;5513662;32;34486;-84
2023/06/29 07:42:13;;;;;;;4.35;2.75;;;;;;;25.44;49.61;100314.56;5515969;32;33953;-84
2023/06/29 07:45:31;;;;;;;6.03;3.20;;;;;;;25.92;47.53;100310.97;5512214;32;33904;-89
2023/06/29 07:48:34;;;;;;;5.05;3.42;;;;;;;25.40;49.78;100310.53;5519727;32;33962;-89
2023/06/29 07:51:37;;;;;;;4.50;3.42;;;;;;;24.36;52.82;100306.59;5518952;32;34505;-84
2023/06/29 07:54:41;;;;;;;6.90;3.17;;;;;;;25.46;49.19;100308.97;5530474;32;33584;-85
2023/06/29 07:57:43;;;;;;;6.55;3.53;;;;;;;25.95;47.56;100311.44;5530958;32;34147;-84
2023/06/29 08:00:49;;;;;;;5.55;3.10;;;;;;;26.10;48.28;100311.53;5517509;32;33442;-84
2023/06/29 08:03:52;;;;;;;7.15;3.10;;;;;;;25.61;48.64;100303.66;5533931;32;33916;-84
2023/06/29 08:07:06;;;;;;;4.97;3.10;;;;;;;26.98;47.16;100302.16;5529264;32;33839;-84
2023/06/29 08:10:12;;;;;;;7.57;2.80;;;;;;;27.44;43.84;100309.28;5532816;32;35228;-84
2023/06/29 08:13:18;;;;;;;4.10;3.00;;;;;;;27.75;42.95;100299.19;5514609;32;34014;-85
2023/06/29 08:16:21;;;;;;;7.30;3.75;;;;;;;28.15;41.87;100303.41;5528110;32;34916;-85
2023/06/29 08:19:24;;;;;;;7.15;2.90;;;;;;;28.35;41.69;100298.16;5529456;32;33973;-85
2023/06/29 08:22:27;;;;;;;6.85;3.10;;;;;;;28.50;42.70;100307.09;5530445;32;34093;-85
2023/06/29 08:25:30;;;;;;;5.57;3.00;;;;;;;27.90;42.61;100296.44;5516571;32;33907;-85
2023/06/29 08:28:32;;;;;;;3.10;2.78;;;;;;;28.70;40.94;100306.41;5511836;32;33933;-86
2023/06/29 08:31:35;;;;;;;3.80;2.75;;;;;;;28.71;41.05;100299.91;5509239;32;33634;-87
2023/06/29 08:34:38;;;;;;;4.22;2.75;;;;;;;29.22;40.63;100305.31;5508657;32;34339;-86
2023/06/29 08:37:41;;;;;;;5.53;3.42;;;;;;;29.75;39.20;100301.16;5508200;32;33884;-86
2023/06/29 08:40:47;;;;;;;6.47;3.12;;;;;;;29.38;40.36;100302.25;5529052;32;33783;-87
2023/06/29 08:43:51;;;;;;;4.62;2.80;;;;;;;30.36;37.20;100302.97;5527973;32;33646;-86
2023/06/29 08:46:58;;;;;;;5.70;2.50;;;;;;;30.43;38.61;100296.66;5526672;32;34797;-87
2023/06/29 08:50:04;;;;;;;6.30;2.83;;;;;;;31.02;35.95;100297.69;5527067;32;34697;-86
2023/06/29 08:53:07;;;;;;;4.22;2.87;;;;;;;30.04;37.83;100308.19;5521417;32;33928;-86
2023/06/29 08:56:11;;;;;;;5.00;2.65;;;;;;;30.78;35.36;100301.94;5517590;32;34173;-86
2023/06/29 08:59:15;;;;;;;6.93;2.80;;;;;;;30.07;36.60;100295.97;5523251;32;34156;-87
2023/06/29 09:02:18;;;;;;;6.82;3.10;;;;;;;29.16;39.26;100288.69;5529912;32;34294;-86
2023/06/29 09:05:21;;;;;;;7.47;2.85;;;;;;;28.28;41.77;100299.97;5519187;32;33761;-86
2023/06/29 09:08:24;;;;;;;4.60;2.90;;;;;;;27.92;42.31;100296.25;5511924;32;33580;-85
2023/06/29 09:11:27;;;;;;;4.30;2.87;;;;;;;26.82;44.03;100303.16;5512273;32;33796;-85
2023/06/29 09:14:35;;;;;;;6.32;3.20;;;;;;;25.70;47.16;100302.63;5511252;32;33713;-86
2023/06/29 09:17:44;;;;;;;6.55;3.40;;;;;;;25.69;47.60;100290.03;5511183;32;34031;-86
2023/06/29 09:20:50;;;;;;;5.85;2.47;;;;;;;25.26;49.39;100302.09;5511368;32;34432;-86
2023/06/29 09:23:56;;;;;;;3.83;2.67;;;;;;;25.55;47.31;100297.91;5518143;32;33634;-86
2023/06/29 09:26:59;;;;;;;6.03;3.03;;;;;;;25.03;47.42;100302.84;5531609;32;33475;-86
2023/06/29 09:30:04;;;;;;;3.95;3.25;;;;;;;24.36;49.92;100284.91;5524368;32;33872;-89
2023/06/29 09:33:09;;;;;;;2.45;2.25;;;;;;;25.76;47.57;100293.75;5512459;32;33696;-87
2023/06/29 09:36:12;;;;;;;3.92;2.60;;;;;;;27.52;41.54;100294.72;5520683;32;33899;-86
2023/06/29 09:39:17;;;;;;;6.85;3.08;;;;;;;28.23;40.65;100293.25;5523130;32;34294;-86
2023/06/29 09:42:20;;;;;;;3.40;2.70;;;;;;;27.34;43.90;100291.56;5523603;32;34059;-86
2023/06/29 09:45:28;;;;;;;3.55;2.75;;;;;;;26.49;46.23;100284.41;5529371;32;33691;-86
2023/06/29 09:48:31;;;;;;;3.08;2.80;;;;;;;25.86;47.33;100288.09;5529769;32;34073;-86
2023/06/29 09:51:38;;;;;;;3.03;2.75;;;;;;;25.62;47.13;100289.06;5529292;32;33532;-86
2023/06/29 09:54:42;;;;;;;2.75;2.47;;;;;;;26.57;43.88;100287.06;5529299;32;34402;-86
2023/06/29 09:57:52;;;;;;;4.95;2.70;;;;;;;28.40;41.93;100286.66;5529688;32;33875;-86
2023/06/29 10:00:58;;;;;;;4.35;2.75;;;;;;;29.31;36.94;100291.28;5530031;32;33742;-86
2023/06/29 10:04:04;;;;;;;5.95;2.70;;;;;;;30.07;37.06;100296.81;5528629;32;34304;-86
2023/06/29 10:07:18;;;;;;;3.42;2.75;;;;;;;30.00;37.48;100293.22;5525762;32;33741;-85
2023/06/29 10:10:23;;;;;;;5.03;3.70;;;;;;;29.31;39.15;100294.00;5525117;32;33742;-86
2023/06/29 10:13:27;;;;;;;4.35;3.55;;;;;;;28.11;40.47;100298.31;5523512;32;33751;-86
2023/06/29 10:16:34;;;;;;;3.03;2.70;;;;;;;28.22;40.95;100294.25;5521701;32;33569;-86
2023/06/29 10:19:39;;;;;;;4.32;2.78;;;;;;;27.37;42.66;100297.47;5529514;32;33863;-86
2023/06/29 10:22:44;;;;;;;4.55;2.97;;;;;;;27.17;43.39;100287.13;5524629;32;34001;-86
2023/06/29 10:25:48;;;;;;;4.95;3.15;;;;;;;28.17;41.14;100298.59;5509810;32;33756;-86
2023/06/29 10:28:52;;;;;;;3.72;2.45;;;;;;;28.51;41.29;100289.69;5523941;32;33968;-86
2023/06/29 10:31:58;;;;;;;4.45;2.80;;;;;;;28.20;40.54;100292.75;5527473;32;33901;-86
2023/06/29 10:35:01;;;;;;;3.50;2.40;;;;;;;27.82;40.84;100282.94;5523563;32;33504;-86
2023/06/29 10:38:12;;;;;;;2.70;2.33;;;;;;;29.00;39.57;100287.13;5513959;32;34214;-86
2023/06/29 10:41:28;;;;;;;5.37;2.30;;;;;;;30.20;36.73;100287.81;5518767;32;33497;-86
2023/06/29 10:44:34;;;;;;;5.05;2.70;;;;;;;30.37;35.54;100290.16;5510755;32;33552;-86
2023/06/29 10:47:38;;;;;;;3.28;2.50;;;;;;;29.89;36.33;100291.09;5524539;32;33739;-85
2023/06/29 10:50:43;;;;;;;3.28;2.40;;;;;;;30.52;36.42;100284.47;5529478;32;33849;-86
2023/06/29 10:53:48;;;;;;;2.97;2.50;;;;;;;30.23;36.71;100290.12;5521394;32;33630;-89
2023/06/29 10:57:02;;;;;;;2.85;2.50;;;;;;;29.31;37.19;100287.72;5509321;32;33431;-90
2023/06/29 11:00:05;;;;;;;3.00;2.70;;;;;;;28.79;37.57;100267.03;5510145;32;33816;-86
2023/06/29 11:03:09;;;;;;;3.30;2.40;;;;;;;28.91;38.84;100275.53;5524601;32;33461;-86
2023/06/29 11:06:12;;;;;;;2.67;2.47;;;;;;;29.27;38.02;100268.16;5528824;32;34649;-86
2023/06/29 11:09:30;;;;;;;2.65;2.40;;;;;;;30.71;34.06;100276.50;5519887;32;33808;-86
2023/06/29 11:12:35;;;;;;;3.83;2.58;;;;;;;29.23;37.99;100264.16;5509106;32;33534;-86
2023/06/29 11:15:38;;;;;;;3.97;2.50;;;;;;;29.62;37.29;100264.56;5512616;32;33591;-86
2023/06/29 11:18:48;;;;;;;3.00;2.80;;;;;;;29.16;37.46;100260.56;5523070;32;34111;-86
2023/06/29 11:21:54;;;;;;;2.70;2.50;;;;;;;28.78;37.42;100264.50;5516663;32;33703;-86
2023/06/29 11:24:56;;;;;;;3.60;2.60;;;;;;;28.06;38.97;100264.53;5528617;32;34187;-86
2023/06/29 11:28:00;;;;;;;3.50;2.67;;;;;;;28.37;40.14;100261.47;5528684;32;32186;-86
2023/06/29 11:39:12;;;;;;;2.72;2.55;;;;;;;29.99;36.94;100259.59;5541972;32;232430;-85
2023/06/29 11:42:23;;;;;;;3.42;2.78;;;;;;;29.39;37.34;100257.50;5548529;32;33343;-85
2023/06/29 11:45:26;;;;;;;4.03;2.70;;;;;;;30.02;36.70;100258.31;5558643;32;32597;-85
2023/06/29 11:48:29;;;;;;;3.22;2.67;;;;;;;28.54;37.59;100260.31;5548939;32;33958;-85
2023/06/29 11:51:34;;;;;;;3.97;2.53;;;;;;;27.90;37.99;100257.44;5560680;32;33859;-85
2023/06/29 11:54:38;;;;;;;2.90;2.70;;;;;;;27.76;39.82;100251.84;5547818;32;33812;-85
2023/06/29 11:57:43;;;;;;;3.20;2.90;;;;;;;26.97;42.09;100250.63;5542461;32;34112;-85
2023/06/29 12:00:55;;;;;;;2.85;2.65;;;;;;;26.82;42.93;100250.59;5544072;32;32118;-85
2023/06/29 12:03:58;;;;;;;2.72;2.47;;;;;;;26.55;41.91;100247.47;5542492;32;33599;-85
2023/06/29 12:07:02;;;;;;;3.05;2.60;;;;;;;27.27;41.42;100239.72;5546668;32;35484;-85
2023/06/29 12:10:11;;;;;;;5.70;2.65;;;;;;;27.56;39.81;100241.53;5562359;32;34312;-85
2023/06/29 12:13:15;;;;;;;2.70;2.50;;;;;;;27.00;40.69;100242.94;5543050;32;34508;-85
2023/06/29 12:16:17;;;;;;;2.80;2.60;;;;;;;26.87;39.59;100242.72;5548269;32;34610;-84
2023/06/29 12:19:31;;;;;;;3.12;2.83;;;;;;;27.41;40.50;100232.56;5557352;32;34491;-84
2023/06/29 12:22:34;;;;;;;2.60;2.40;;;;;;;28.07;37.98;100230.75;5559255;32;33871;-85
2023/06/29 12:25:45;;;;;;;3.75;2.85;;;;;;;28.26;38.22;100229.28;5558872;32;33651;-84
2023/06/29 12:28:49;;;;;;;2.83;2.60;;;;;;;28.45;38.05;100216.00;5555066;32;33854;-88
2023/06/29 12:31:58;;;;;;;2.97;2.78;;;;;;;28.17;38.78;100220.37;5562415;32;34503;-85
2023/06/29 12:35:01;;;;;;;2.85;2.65;;;;;;;27.61;38.20;100221.94;5555191;32;36434;-85
2023/06/29 12:38:04;;;;;;;2.87;2.67;;;;;;;27.73;37.42;100214.09;5553747;32;33372;-84
2023/06/29 12:41:07;;;;;;;2.80;2.55;;;;;;;28.05;37.28;100214.59;5543230;32;33541;-84
2023/06/29 12:44:10;;;;;;;3.00;2.80;;;;;;;27.94;37.94;100210.53;5537185;32;33485;-85
2023/06/29 12:47:13;;;;;;;3.03;2.83;;;;;;;27.90;38.61;100202.94;5534802;32;33841;-85
2023/06/29 12:50:17;;;;;;;6.10;2.80;;;;;;;27.07;39.17;100209.50;5529600;32;33931;-84
2023/06/29 12:53:20;;;;;;;3.05;2.80;;;;;;;26.66;40.29;100208.09;5529823;32;33354;-84
2023/06/29 12:56:25;;;;;;;3.42;2.37;;;;;;;27.03;39.74;100203.59;5531616;32;35305;-83
2023/06/29 12:59:28;;;;;;;3.22;2.92;;;;;;;27.78;39.71;100195.28;5530529;32;33839;-84
2023/06/29 13:02:31;;;;;;;3.37;2.85;;;;;;;27.50;37.99;100201.44;5531703;32;33533;-84
2023/06/29 13:05:34;;;;;;;2.87;2.67;;;;;;;26.06;40.48;100206.94;5529789;32;33839;-85
2023/06/29 13:08:37;;;;;;;3.87;2.70;;;;;;;26.39;41.00;100186.78;5529318;32;34436;-84
2023/06/29 13:11:44;;;;;;;3.05;2.75;;;;;;;26.36;40.86;100193.41;5533741;32;33436;-83
2023/06/29 13:14:49;;;;;;;3.05;2.75;;;;;;;26.62;39.93;100185.87;5531601;32;33911;-83
2023/06/29 13:17:52;;;;;;;4.80;2.97;;;;;;;26.98;40.02;100182.41;5531285;32;33647;-84
2023/06/29 13:20:55;;;;;;;3.33;2.78;;;;;;;27.31;40.46;100190.13;5529999;32;33775;-84
2023/06/29 13:23:58;;;;;;;3.00;2.80;;;;;;;26.85;39.69;100182.22;5531312;32;33681;-84
2023/06/29 13:27:03;;;;;;;5.20;2.80;;;;;;;27.34;39.95;100179.91;5529779;32;33885;-84
2023/06/29 13:30:07;;;;;;;3.53;3.00;;;;;;;27.67;39.79;100177.56;5530492;32;34556;-85
2023/06/29 13:33:10;;;;;;;2.78;2.58;;;;;;;27.41;39.61;100173.47;5530958;32;33545;-84
2023/06/29 13:36:13;;;;;;;3.25;2.87;;;;;;;27.48;39.05;100173.56;5533912;32;34291;-84
2023/06/29 13:39:15;;;;;;;3.15;2.45;;;;;;;27.63;38.20;100170.81;5530862;32;33421;-85
2023/06/29 13:42:18;;;;;;;11.40;3.05;;;;;;;27.95;37.81;100174.03;5530379;32;33754;-84
2023/06/29 13:45:21;;;;;;;2.70;2.50;;;;;;;27.85;39.01;100174.38;5530411;32;33945;-84
2023/06/29 13:48:24;;;;;;;4.28;2.62;;;;;;;27.35;38.79;100179.69;5530199;32;34515;-84
2023/06/29 13:51:28;;;;;;;4.15;2.87;;;;;;;27.01;39.81;100171.12;5530115;32;33932;-84
2023/06/29 13:54:31;;;;;;;3.30;3.00;;;;;;;26.94;40.81;100163.94;5530043;32;34783;-85
2023/06/29 13:57:34;;;;;;;2.95;2.70;;;;;;;26.74;40.00;100170.75;5542818;32;33455;-85
2023/06/29 14:00:37;;;;;;;2.80;2.60;;;;;;;26.68;40.42;100163.34;5541686;32;35146;-84
2023/06/29 14:03:40;;;;;;;2.70;2.60;;;;;;;26.40;40.91;100160.44;5536296;32;34090;-84
2023/06/29 14:06:43;;;;;;;4.60;3.20;;;;;;;26.18;41.53;100154.84;5533211;32;33700;-83
2023/06/29 14:09:46;;;;;;;2.85;2.65;;;;;;;26.69;41.42;100153.31;5533967;32;33964;-83
2023/06/29 14:12:48;;;;;;;3.40;3.10;;;;;;;26.96;41.55;100150.97;5533388;32;33778;-83
2023/06/29 14:15:51;;;;;;;2.70;2.50;;;;;;;27.09;40.18;100148.41;5534343;32;34447;-83
2023/06/29 14:18:54;;;;;;;4.28;2.92;;;;;;;27.33;42.02;100146.38;5537914;32;33359;-83
2023/06/29 14:21:57;;;;;;;2.75;2.60;;;;;;;26.97;40.25;100144.50;5532771;32;33512;-83
2023/06/29 14:25:00;;;;;;;3.65;2.80;;;;;;;26.78;39.48;100141.28;5535068;32;33819;-83
2023/06/29 14:28:03;;;;;;;3.10;2.80;;;;;;;26.81;40.33;100143.66;5535005;32;35115;-83
2023/06/29 14:31:05;;;;;;;2.78;2.58;;;;;;;26.49;41.69;100141.13;5534628;32;33720;-84
2023/06/29 14:34:08;;;;;;;2.65;2.53;;;;;;;26.96;40.09;100138.22;5534657;32;33345;-84
2023/06/29 14:37:11;;;;;;;2.80;2.60;;;;;;;27.03;40.10;100139.16;5533522;32;34417;-87
2023/06/29 14:40:14;;;;;;;3.00;2.80;;;;;;;27.35;39.11;100136.13;5533063;32;34376;-87
2023/06/29 14:43:18;;;;;;;2.80;2.60;;;;;;;27.49;39.00;100139.00;5533451;32;34472;-87
2023/06/29 14:46:21;;;;;;;2.90;2.55;;;;;;;27.26;39.60;100131.84;5532150;32;34227;-87
2023/06/29 14:49:23;;;;;;;2.80;2.60;;;;;;;27.52;40.07;100128.56;5531286;32;33799;-83
2023/06/29 14:52:26;;;;;;;3.83;2.72;;;;;;;27.69;38.10;100128.31;5530628;32;33923;-83
2023/06/29 14:55:29;;;;;;;3.05;2.85;;;;;;;27.50;38.48;100127.06;5530890;32;33709;-83
2023/06/29 14:58:32;;;;;;;4.22;2.92;;;;;;;27.46;38.48;100126.62;5531578;32;33343;-83
2023/06/29 15:01:35;;;;;;;3.65;2.80;;;;;;;27.30;39.35;100130.44;5539236;32;33842;-83
2023/06/29 15:04:38;;;;;;;3.30;3.00;;;;;;;27.32;39.77;100122.91;5550311;32;33747;-83
2023/06/29 15:07:41;;;;;;;3.25;2.70;;;;;;;27.24;39.29;100123.00;5548496;32;33729;-84
2023/06/29 15:10:44;;;;;;;2.95;2.75;;;;;;;27.18;39.01;100116.47;5549077;32;33692;-84
2023/06/29 15:13:46;;;;;;;4.10;3.20;;;;;;;26.96;39.60;100115.59;5547977;32;34259;-83
2023/06/29 15:16:49;;;;;;;3.67;2.95;;;;;;;26.57;40.25;100123.88;5549740;32;33857;-84
2023/06/29 15:19:53;;;;;;;4.37;2.87;;;;;;;26.74;40.59;100118.22;5548450;32;33707;-84
2023/06/29 15:22:56;;;;;;;3.37;3.08;;;;;;;26.60;40.23;100111.78;5548753;32;33734;-84
2023/06/29 15:25:58;;;;;;;3.67;2.87;;;;;;;26.67;40.05;100112.72;5549167;32;34167;-83
